Time;durP1;ratioP1;P1;durP2;ratioP2;P2;SDS_P1;SDS_P2;PMS_P1;PMS_P2;Temp;Humidity;BMP_temperature;BMP_pressure;BME280_temperature;BME280_humidity;BME280_pressure;Samples;Min_cycle;Max_cycle;Signal;HPM_P1;HPM_P2
2024/01/23 00:00:45;;;;;;;13.47;1.93;;;;;;;;;;5089854;28;20454;-88
2024/01/23 00:03:11;;;;;;;20.67;1.90;;;;;;;;;;5089601;28;20020;-89
2024/01/23 00:05:36;;;;;;;16.80;1.90;;;;;;;;;;5090975;28;20044;-89
2024/01/23 00:08:03;;;;;;;21.77;2.00;;;;;;;;;;5070893;28;20446;-89
2024/01/23 00:10:28;;;;;;;15.70;2.17;;;;;;;;;;5082547;28;20028;-90
2024/01/23 00:12:53;;;;;;;15.33;2.37;;;;;;;;;;5092401;28;20064;-89
2024/01/23 00:15:18;;;;;;;15.00;2.30;;;;;;;;;;5103277;28;20490;-90
2024/01/23 00:17:43;;;;;;;15.70;1.83;;;;;;;;;;5107606;28;20020;-89
2024/01/23 00:20:10;;;;;;;15.63;1.90;;;;;;;;;;5091625;28;20089;-90
2024/01/23 00:22:35;;;;;;;15.33;2.33;;;;;;;;;;5072179;28;20024;-89
2024/01/23 00:25:00;;;;;;;16.97;2.17;;;;;;;;;;5089253;28;20079;-90
2024/01/23 00:27:26;;;;;;;18.93;2.33;;;;;;;;;;5090662;28;20024;-90
2024/01/23 00:29:51;;;;;;;20.90;2.80;;;;;;;;;;5089685;28;20077;-90
2024/01/23 00:32:16;;;;;;;15.47;2.47;;;;;;;;;;5091001;28;20016;-89
2024/01/23 00:34:41;;;;;;;14.87;1.83;;;;;;;;;;5089729;28;20042;-90
2024/01/23 00:37:06;;;;;;;13.07;1.77;;;;;;;;;;5073085;28;20099;-89
2024/01/23 00:39:35;;;;;;;14.33;1.87;;;;;;;;;;5089335;28;20023;-89
2024/01/23 00:42:01;;;;;;;11.40;1.40;;;;;;;;;;5089961;28;20101;-89
2024/01/23 00:44:26;;;;;;;15.37;2.20;;;;;;;;;;5090102;28;20456;-90
2024/01/23 00:46:51;;;;;;;15.43;1.90;;;;;;;;;;5072403;28;20024;-90
2024/01/23 00:49:16;;;;;;;19.20;2.57;;;;;;;;;;5082784;28;20023;-89
2024/01/23 00:51:41;;;;;;;13.40;2.20;;;;;;;;;;5081489;28;20020;-90
2024/01/23 00:54:07;;;;;;;22.73;2.40;;;;;;;;;;5090461;28;20469;-89
2024/01/23 00:56:33;;;;;;;18.60;1.70;;;;;;;;;;5088225;28;20081;-89
2024/01/23 00:58:58;;;;;;;16.37;1.93;;;;;;;;;;5069610;28;20874;-89
2024/01/23 01:01:24;;;;;;;13.97;1.90;;;;;;;;;;5066970;28;20038;-89
2024/01/23 01:03:49;;;;;;;20.23;2.70;;;;;;;;;;5090222;28;20800;-89
2024/01/23 01:06:14;;;;;;;14.40;1.97;;;;;;;;;;5091317;28;20019;-90
2024/01/23 01:08:39;;;;;;;18.40;2.07;;;;;;;;;;5089240;28;20302;-89
2024/01/23 01:11:06;;;;;;;17.50;2.00;;;;;;;;;;5091384;28;20059;-89
2024/01/23 01:13:31;;;;;;;21.00;1.87;;;;;;;;;;5094474;28;20030;-89
2024/01/23 01:15:56;;;;;;;13.33;1.93;;;;;;;;;;5094362;28;20020;-89
2024/01/23 01:18:22;;;;;;;17.43;1.93;;;;;;;;;;5092372;28;20300;-89
2024/01/23 01:20:48;;;;;;;20.33;2.00;;;;;;;;;;5093664;28;20097;-90
2024/01/23 01:23:13;;;;;;;14.50;2.57;;;;;;;;;;5092140;28;20051;-89
2024/01/23 01:25:43;;;;;;;18.30;1.95;;;;;;;;;;5094443;28;20475;-90
2024/01/23 01:28:08;;;;;;;11.73;1.50;;;;;;;;;;5093105;28;20094;-89
2024/01/23 01:30:33;;;;;;;14.90;1.73;;;;;;;;;;5091692;28;20028;-89
2024/01/23 01:32:58;;;;;;;12.80;2.13;;;;;;;;;;5092367;28;20155;-90
2024/01/23 01:35:24;;;;;;;15.90;2.20;;;;;;;;;;5091506;28;20089;-90
2024/01/23 01:37:49;;;;;;;15.43;1.67;;;;;;;;;;5092794;28;20070;-89
2024/01/23 01:40:14;;;;;;;17.77;2.13;;;;;;;;;;5092261;28;20016;-89
2024/01/23 01:42:43;;;;;;;17.63;2.23;;;;;;;;;;5094002;28;20051;-89
2024/01/23 01:45:10;;;;;;;13.55;1.90;;;;;;;;;;5093811;28;20110;-89
2024/01/23 01:48:15;;;;;;;16.45;2.00;;;;;;;;;;5091735;28;20004;-89
2024/01/23 01:50:40;;;;;;;19.42;2.03;;;;;;;;;;5077319;28;20032;-89
2024/01/23 01:53:06;;;;;;;20.07;2.57;;;;;;;;;;5093040;28;20024;-89
2024/01/23 01:55:31;;;;;;;20.23;1.87;;;;;;;;;;5092587;28;20024;-89
2024/01/23 01:57:56;;;;;;;20.07;2.10;;;;;;;;;;5092271;28;20028;-89
2024/01/23 02:00:21;;;;;;;19.13;2.57;;;;;;;;;;5077455;28;20026;-90
2024/01/23 02:02:50;;;;;;;18.37;1.80;;;;;;;;;;5089989;28;20098;-89
2024/01/23 02:05:15;;;;;;;13.00;1.70;;;;;;;;;;5091832;28;20052;-90
2024/01/23 02:07:41;;;;;;;22.20;2.33;;;;;;;;;;5090789;28;20047;-90
2024/01/23 02:10:09;;;;;;;25.10;2.10;;;;;;;;;;5097027;28;20050;-89
2024/01/23 02:12:34;;;;;;;21.77;2.53;;;;;;;;;;5097939;28;20027;-89
2024/01/23 02:14:59;;;;;;;12.00;2.00;;;;;;;;;;5106788;28;20020;-88
2024/01/23 02:17:24;;;;;;;19.57;2.23;;;;;;;;;;5105928;28;20020;-90
2024/01/23 02:19:50;;;;;;;14.20;1.90;;;;;;;;;;5096259;28;20016;-90
2024/01/23 02:22:16;;;;;;;17.80;1.92;;;;;;;;;;5092125;28;20056;-89
2024/01/23 02:24:41;;;;;;;14.37;1.40;;;;;;;;;;5093224;28;20486;-90
2024/01/23 02:27:06;;;;;;;17.50;1.80;;;;;;;;;;5084805;28;20013;-89
2024/01/23 02:29:31;;;;;;;19.90;2.13;;;;;;;;;;5092365;28;20032;-90
2024/01/23 02:31:57;;;;;;;16.50;1.77;;;;;;;;;;5082219;28;20028;-89
2024/01/23 02:34:24;;;;;;;17.77;1.83;;;;;;;;;;5072865;28;20027;-89
2024/01/23 02:36:49;;;;;;;16.58;1.38;;;;;;;;;;5079349;28;20028;-89
2024/01/23 02:39:14;;;;;;;9.83;1.53;;;;;;;;;;5090609;28;20031;-89
2024/01/23 02:41:41;;;;;;;17.63;1.50;;;;;;;;;;5091520;28;20024;-89
2024/01/23 02:44:06;;;;;;;14.93;1.80;;;;;;;;;;5093289;28;20225;-89
2024/01/23 02:46:31;;;;;;;18.10;1.93;;;;;;;;;;5095733;28;20076;-89
2024/01/23 02:48:56;;;;;;;24.20;2.30;;;;;;;;;;5094655;28;20012;-89
2024/01/23 02:51:22;;;;;;;12.40;1.60;;;;;;;;;;5105476;28;20032;-89
2024/01/23 02:53:47;;;;;;;18.60;2.20;;;;;;;;;;5106186;28;20016;-90
2024/01/23 02:56:12;;;;;;;20.73;2.13;;;;;;;;;;5105523;28;20036;-88
2024/01/23 02:58:41;;;;;;;19.30;2.37;;;;;;;;;;5096715;28;20023;-89
2024/01/23 03:01:06;;;;;;;21.48;2.35;;;;;;;;;;5096612;28;20016;-89
2024/01/23 03:03:32;;;;;;;11.53;1.63;;;;;;;;;;5112545;28;20020;-89
2024/01/23 03:05:57;;;;;;;17.70;1.80;;;;;;;;;;5094030;28;20051;-89
2024/01/23 03:08:23;;;;;;;27.97;2.13;;;;;;;;;;5104318;28;20035;-89
2024/01/23 03:10:48;;;;;;;18.27;1.95;;;;;;;;;;5105041;28;20017;-89
2024/01/23 03:13:13;;;;;;;24.30;2.20;;;;;;;;;;5107203;28;20020;-90
2024/01/23 03:15:38;;;;;;;16.83;2.40;;;;;;;;;;5112179;28;20027;-89
2024/01/23 03:18:04;;;;;;;20.73;2.30;;;;;;;;;;5114529;28;20024;-89
2024/01/23 03:20:30;;;;;;;17.93;2.30;;;;;;;;;;5112284;28;20030;-89
2024/01/23 03:22:56;;;;;;;19.63;2.53;;;;;;;;;;5097278;28;20108;-88
2024/01/23 03:25:21;;;;;;;17.77;2.10;;;;;;;;;;5092738;28;20024;-88
2024/01/23 03:27:46;;;;;;;25.53;2.03;;;;;;;;;;5087781;28;20555;-89
2024/01/23 03:30:26;;;;;;;20.53;2.43;;;;;;;;;;5080422;28;20108;-89
2024/01/23 03:32:51;;;;;;;23.65;2.88;;;;;;;;;;5090291;28;20394;-89
2024/01/23 03:35:16;;;;;;;21.37;2.63;;;;;;;;;;5092539;28;20020;-89
2024/01/23 03:37:41;;;;;;;21.50;2.13;;;;;;;;;;5091976;28;20055;-88
2024/01/23 03:40:07;;;;;;;20.63;2.37;;;;;;;;;;5090399;28;20384;-88
2024/01/23 03:42:32;;;;;;;25.87;3.07;;;;;;;;;;5092437;28;20073;-88
2024/01/23 03:44:57;;;;;;;19.93;2.13;;;;;;;;;;5085234;28;20047;-89
2024/01/23 03:47:23;;;;;;;19.13;2.23;;;;;;;;;;5073149;28;20089;-89
2024/01/23 03:49:48;;;;;;;17.70;2.35;;;;;;;;;;5073814;28;20365;-89
2024/01/23 03:52:14;;;;;;;18.83;2.10;;;;;;;;;;5091391;28;20020;-88
2024/01/23 03:54:39;;;;;;;24.57;2.50;;;;;;;;;;5092476;28;20012;-89
2024/01/23 03:57:04;;;;;;;25.50;2.33;;;;;;;;;;5103383;28;20016;-89
2024/01/23 03:59:29;;;;;;;24.03;2.63;;;;;;;;;;5114441;28;20012;-88
2024/01/23 04:01:55;;;;;;;21.90;2.40;;;;;;;;;;5094092;28;20035;-89
2024/01/23 04:04:21;;;;;;;17.80;2.00;;;;;;;;;;5112455;28;20046;-88
2024/01/23 04:06:46;;;;;;;27.52;2.45;;;;;;;;;;5113195;28;20000;-89
2024/01/23 04:09:12;;;;;;;16.90;2.20;;;;;;;;;;5114360;28;20054;-88
2024/01/23 04:11:37;;;;;;;19.73;2.13;;;;;;;;;;5095825;28;20020;-88
2024/01/23 04:14:02;;;;;;;22.40;2.20;;;;;;;;;;5100438;28;20039;-89
2024/01/23 04:16:27;;;;;;;21.20;2.33;;;;;;;;;;5096305;28;20043;-89
2024/01/23 04:18:54;;;;;;;22.60;2.67;;;;;;;;;;5090126;28;20037;-90
2024/01/23 04:21:19;;;;;;;17.73;2.70;;;;;;;;;;5091341;28;20733;-90
2024/01/23 04:23:45;;;;;;;25.13;2.10;;;;;;;;;;5091997;28;20038;-90
2024/01/23 04:26:10;;;;;;;26.23;2.70;;;;;;;;;;5092970;28;20099;-90
2024/01/23 04:28:35;;;;;;;21.33;2.37;;;;;;;;;;5069085;28;20489;-91
2024/01/23 04:31:01;;;;;;;15.00;1.92;;;;;;;;;;5091915;28;20035;-91
2024/01/23 04:33:26;;;;;;;24.47;2.03;;;;;;;;;;5090705;28;20012;-91
2024/01/23 04:35:51;;;;;;;19.33;2.07;;;;;;;;;;5090106;28;20032;-89
2024/01/23 04:38:16;;;;;;;29.30;2.60;;;;;;;;;;5088768;28;20042;-90
2024/01/23 04:40:41;;;;;;;23.43;2.40;;;;;;;;;;5090120;28;20373;-90
2024/01/23 04:43:07;;;;;;;19.43;2.43;;;;;;;;;;5072171;28;20023;-90
2024/01/23 04:45:32;;;;;;;32.50;2.80;;;;;;;;;;5092623;28;20098;-90
2024/01/23 04:47:57;;;;;;;25.83;2.60;;;;;;;;;;5092871;28;20121;-89
2024/01/23 04:50:22;;;;;;;17.60;1.97;;;;;;;;;;5076315;28;20670;-90
2024/01/23 04:52:47;;;;;;;23.87;2.30;;;;;;;;;;5093095;28;20119;-92
2024/01/23 04:55:13;;;;;;;14.37;1.83;;;;;;;;;;5083358;28;20028;-91
2024/01/23 04:57:38;;;;;;;19.43;2.43;;;;;;;;;;5093875;28;20541;-91
2024/01/23 05:00:04;;;;;;;21.67;4.30;;;;;;;;;;5089564;28;20499;-93
2024/01/23 05:02:30;;;;;;;17.80;1.85;;;;;;;;;;5098293;28;20024;-96
2024/01/23 05:04:55;;;;;;;18.13;2.47;;;;;;;;;;5084849;28;20073;-94
2024/01/23 05:07:20;;;;;;;18.10;2.00;;;;;;;;;;5084321;28;20399;-91
2024/01/23 05:09:47;;;;;;;18.03;2.40;;;;;;;;;;5079780;28;20472;-91
2024/01/23 05:12:12;;;;;;;22.08;2.47;;;;;;;;;;5095201;28;20028;-91
2024/01/23 05:14:37;;;;;;;16.90;2.40;;;;;;;;;;5074718;28;20031;-92
2024/01/23 05:17:02;;;;;;;27.33;2.63;;;;;;;;;;5074115;28;20029;-91
2024/01/23 05:19:28;;;;;;;26.80;2.83;;;;;;;;;;5056262;28;20029;-93
2024/01/23 05:21:53;;;;;;;27.90;2.83;;;;;;;;;;5073178;28;20044;-92
2024/01/23 05:24:18;;;;;;;16.87;2.00;;;;;;;;;;5086422;28;20055;-91
2024/01/23 05:26:43;;;;;;;21.13;2.50;;;;;;;;;;5086469;28;20073;-90
2024/01/23 05:29:08;;;;;;;21.83;2.23;;;;;;;;;;5094538;28;20062;-91
2024/01/23 05:31:34;;;;;;;22.83;2.60;;;;;;;;;;5092891;28;20034;-90
2024/01/23 05:33:59;;;;;;;23.80;2.40;;;;;;;;;;5090261;28;20028;-92
2024/01/23 05:36:24;;;;;;;28.40;3.60;;;;;;;;;;5092709;28;20475;-89
2024/01/23 05:38:50;;;;;;;25.30;2.87;;;;;;;;;;5092785;28;20024;-89
2024/01/23 05:41:16;;;;;;;21.75;2.25;;;;;;;;;;5089210;28;20447;-87
2024/01/23 05:43:41;;;;;;;26.20;2.40;;;;;;;;;;5092747;28;20020;-87
2024/01/23 05:46:06;;;;;;;16.53;2.30;;;;;;;;;;5090193;28;20376;-87
2024/01/23 05:48:32;;;;;;;14.40;2.07;;;;;;;;;;5083233;28;20016;-89
2024/01/23 05:50:57;;;;;;;17.73;1.67;;;;;;;;;;5077251;28;20024;-90
2024/01/23 05:53:23;;;;;;;27.33;2.67;;;;;;;;;;5084779;28;20120;-94
2024/01/23 05:55:48;;;;;;;17.60;1.80;;;;;;;;;;5077820;28;20030;-95
2024/01/23 05:58:13;;;;;;;21.47;2.50;;;;;;;;;;5088593;28;20031;-89
2024/01/23 06:00:39;;;;;;;23.10;1.97;;;;;;;;;;5088261;28;20020;-91
2024/01/23 06:03:04;;;;;;;17.52;2.20;;;;;;;;;;5084420;28;20021;-90
2024/01/23 06:05:31;;;;;;;19.83;2.70;;;;;;;;;;5073526;28;20017;-91
2024/01/23 06:07:56;;;;;;;26.83;2.17;;;;;;;;;;5073411;28;20658;-91
2024/01/23 06:10:21;;;;;;;20.67;3.10;;;;;;;;;;5075003;28;20028;-91
2024/01/23 06:12:47;;;;;;;26.83;2.23;;;;;;;;;;5085306;28;20051;-91
2024/01/23 06:15:13;;;;;;;28.37;2.73;;;;;;;;;;5083462;28;20035;-91
2024/01/23 06:17:39;;;;;;;25.58;2.53;;;;;;;;;;5093688;28;20020;-90
2024/01/23 06:20:04;;;;;;;19.97;2.60;;;;;;;;;;5090319;28;20092;-91
2024/01/23 06:22:33;;;;;;;22.35;2.13;;;;;;;;;;5094509;28;20004;-92
2024/01/23 06:25:02;;;;;;;26.20;2.15;;;;;;;;;;5093891;28;20020;-94
2024/01/23 06:27:27;;;;;;;25.17;2.83;;;;;;;;;;5073927;28;20380;-93
2024/01/23 06:29:52;;;;;;;20.03;1.90;;;;;;;;;;5073566;28;20024;-92
2024/01/23 06:32:17;;;;;;;20.00;2.07;;;;;;;;;;5094081;28;20038;-93
2024/01/23 06:34:43;;;;;;;24.07;2.57;;;;;;;;;;5095046;28;20016;-93
2024/01/23 06:37:08;;;;;;;24.60;2.00;;;;;;;;;;5077286;28;20032;-92
2024/01/23 06:39:33;;;;;;;26.23;2.27;;;;;;;;;;5093985;28;20277;-93
2024/01/23 06:41:58;;;;;;;26.80;2.33;;;;;;;;;;5090142;28;20074;-92
2024/01/23 06:44:23;;;;;;;19.23;2.13;;;;;;;;;;5079686;28;20384;-93
2024/01/23 06:46:48;;;;;;;29.97;2.47;;;;;;;;;;5077097;28;20035;-93
2024/01/23 06:49:21;;;;;;;28.73;2.80;;;;;;;;;;5093645;28;20512;-92
2024/01/23 06:51:46;;;;;;;27.97;2.73;;;;;;;;;;5099823;28;20015;-91
2024/01/23 06:54:11;;;;;;;17.67;2.17;;;;;;;;;;5108480;28;20780;-92
2024/01/23 06:56:36;;;;;;;22.20;2.70;;;;;;;;;;5104374;28;20039;-93
2024/01/23 06:59:03;;;;;;;19.23;2.73;;;;;;;;;;5111849;28;20062;-92
2024/01/23 07:01:28;;;;;;;20.42;2.53;;;;;;;;;;5111471;28;20123;-90
2024/01/23 07:03:53;;;;;;;18.80;2.40;;;;;;;;;;5086005;28;20024;-90
2024/01/23 07:06:19;;;;;;;19.80;1.97;;;;;;;;;;5094400;28;20023;-91
2024/01/23 07:08:45;;;;;;;23.77;2.60;;;;;;;;;;5093500;28;20024;-90
2024/01/23 07:11:12;;;;;;;20.58;1.70;;;;;;;;;;5097686;28;20040;-92
2024/01/23 07:13:38;;;;;;;14.05;2.00;;;;;;;;;;5101907;28;20073;-91
2024/01/23 07:16:03;;;;;;;26.13;2.77;;;;;;;;;;5101239;28;20471;-92
2024/01/23 07:18:28;;;;;;;27.43;2.83;;;;;;;;;;5092986;28;20540;-91
2024/01/23 07:20:53;;;;;;;27.33;2.60;;;;;;;;;;5094654;28;20117;-91
2024/01/23 07:23:18;;;;;;;24.23;3.33;;;;;;;;;;5092697;28;20107;-92
2024/01/23 07:25:44;;;;;;;17.73;1.93;;;;;;;;;;5095285;28;20028;-91
2024/01/23 07:28:09;;;;;;;22.57;2.23;;;;;;;;;;5091282;28;20471;-91
2024/01/23 07:30:34;;;;;;;28.00;2.40;;;;;;;;;;5084813;28;20029;-90
2024/01/23 07:33:00;;;;;;;25.93;2.67;;;;;;;;;;5094513;28;20020;-90
2024/01/23 07:35:25;;;;;;;27.45;2.92;;;;;;;;;;5094508;28;20054;-90
2024/01/23 07:37:50;;;;;;;23.90;3.23;;;;;;;;;;5090612;28;20482;-89
2024/01/23 07:40:16;;;;;;;29.03;2.27;;;;;;;;;;5084652;28;20460;-89
2024/01/23 07:42:41;;;;;;;32.07;2.80;;;;;;;;;;5082027;28;20020;-91
2024/01/23 07:45:06;;;;;;;25.33;3.70;;;;;;;;;;5093383;28;20004;-89
2024/01/23 07:47:31;;;;;;;18.73;2.40;;;;;;;;;;5112195;28;20024;-90
2024/01/23 07:49:57;;;;;;;21.13;2.60;;;;;;;;;;5114574;28;20029;-89
2024/01/23 07:52:22;;;;;;;17.80;2.23;;;;;;;;;;5111343;28;20818;-87
2024/01/23 07:54:48;;;;;;;24.53;2.27;;;;;;;;;;5101862;28;20019;-86
2024/01/23 07:57:13;;;;;;;25.30;2.60;;;;;;;;;;5079130;28;20082;-86
2024/01/23 07:59:39;;;;;;;25.20;3.37;;;;;;;;;;5079912;28;20051;-85
2024/01/23 08:02:04;;;;;;;29.90;2.25;;;;;;;;;;5067325;28;20020;-86
2024/01/23 08:04:29;;;;;;;24.37;3.17;;;;;;;;;;5082877;28;20016;-86
2024/01/23 08:06:55;;;;;;;20.03;2.27;;;;;;;;;;5105321;28;20043;-88
2024/01/23 08:09:20;;;;;;;43.20;4.60;;;;;;;;;;5066603;28;20020;-87
2024/01/23 08:11:45;;;;;;;19.47;2.43;;;;;;;;;;5090064;28;20016;-86
2024/01/23 08:14:10;;;;;;;20.10;2.70;;;;;;;;;;5077734;28;20114;-85
2024/01/23 08:16:35;;;;;;;27.53;3.13;;;;;;;;;;5086773;28;20191;-86
2024/01/23 08:19:02;;;;;;;21.67;2.50;;;;;;;;;;5087603;28;20051;-85
2024/01/23 08:21:27;;;;;;;25.38;2.75;;;;;;;;;;5087594;28;20028;-87
2024/01/23 08:23:52;;;;;;;23.27;3.87;;;;;;;;;;5092270;28;20020;-87
2024/01/23 08:26:17;;;;;;;27.97;3.60;;;;;;;;;;5092801;28;20130;-86
2024/01/23 08:28:43;;;;;;;33.10;3.93;;;;;;;;;;5088508;28;20668;-86
2024/01/23 08:31:08;;;;;;;26.20;2.97;;;;;;;;;;5092034;28;20036;-87
2024/01/23 08:33:34;;;;;;;22.90;3.00;;;;;;;;;;5085292;28;20017;-85
2024/01/23 08:36:01;;;;;;;18.05;3.03;;;;;;;;;;5081599;28;20020;-87
2024/01/23 08:38:26;;;;;;;24.25;2.97;;;;;;;;;;5084341;28;20140;-85
2024/01/23 08:40:51;;;;;;;19.23;2.53;;;;;;;;;;5088544;28;20056;-84
2024/01/23 08:43:17;;;;;;;26.37;2.77;;;;;;;;;;5091396;28;20059;-86
2024/01/23 08:45:43;;;;;;;31.60;3.17;;;;;;;;;;5067009;28;20032;-86
2024/01/23 08:48:08;;;;;;;20.23;2.63;;;;;;;;;;5085546;28;20108;-85
2024/01/23 08:50:33;;;;;;;32.83;3.20;;;;;;;;;;5082512;28;20399;-84
2024/01/23 08:52:59;;;;;;;30.43;2.70;;;;;;;;;;5092671;28;20036;-84
2024/01/23 08:55:24;;;;;;;16.43;2.60;;;;;;;;;;5086845;28;20031;-84
2024/01/23 08:57:49;;;;;;;27.93;3.37;;;;;;;;;;5061749;28;20119;-84
2024/01/23 09:00:15;;;;;;;18.55;2.90;;;;;;;;;;5072354;28;20161;-86
2024/01/23 09:02:40;;;;;;;17.43;2.40;;;;;;;;;;5092462;28;20020;-84
2024/01/23 09:05:05;;;;;;;24.47;2.73;;;;;;;;;;5091483;28;20094;-86
2024/01/23 09:07:31;;;;;;;23.43;2.53;;;;;;;;;;5087437;28;20114;-86
2024/01/23 09:09:56;;;;;;;16.83;2.30;;;;;;;;;;5082601;28;20016;-86
2024/01/23 09:12:22;;;;;;;22.10;2.70;;;;;;;;;;5085282;28;20500;-85
2024/01/23 09:14:47;;;;;;;32.60;3.33;;;;;;;;;;5081441;28;20110;-85
2024/01/23 09:17:12;;;;;;;21.00;2.20;;;;;;;;;;5083181;28;20066;-92
2024/01/23 09:19:37;;;;;;;26.03;2.87;;;;;;;;;;5064966;28;20020;-88
2024/01/23 09:22:04;;;;;;;19.00;2.70;;;;;;;;;;5088916;28;20024;-88
2024/01/23 09:24:29;;;;;;;25.08;2.50;;;;;;;;;;5091476;28;20028;-87
2024/01/23 09:26:59;;;;;;;19.37;2.70;;;;;;;;;;5092320;28;20453;-87
2024/01/23 09:29:25;;;;;;;17.70;2.97;;;;;;;;;;5092078;28;20031;-86
2024/01/23 09:31:50;;;;;;;26.23;2.95;;;;;;;;;;5091736;28;20024;-86
2024/01/23 09:34:16;;;;;;;19.10;2.90;;;;;;;;;;5092361;28;20013;-86
2024/01/23 09:36:41;;;;;;;21.87;2.67;;;;;;;;;;5090939;28;20123;-85
2024/01/23 09:39:07;;;;;;;16.17;2.37;;;;;;;;;;5089731;28;20065;-86
2024/01/23 09:41:33;;;;;;;21.00;3.03;;;;;;;;;;5074835;28;20117;-86
2024/01/23 09:43:59;;;;;;;25.10;2.60;;;;;;;;;;5072578;28;20028;-86
2024/01/23 09:46:24;;;;;;;20.87;3.50;;;;;;;;;;5079973;28;20278;-89
2024/01/23 09:48:50;;;;;;;18.27;2.67;;;;;;;;;;5072961;28;20012;-87
2024/01/23 09:51:17;;;;;;;21.30;2.60;;;;;;;;;;5091022;28;20356;-87
2024/01/23 09:53:44;;;;;;;20.77;2.85;;;;;;;;;;5056776;28;20020;-87
2024/01/23 09:56:10;;;;;;;21.47;2.63;;;;;;;;;;5073378;28;20036;-87
2024/01/23 09:58:36;;;;;;;22.42;2.72;;;;;;;;;;5091546;28;20024;-87
2024/01/23 10:01:01;;;;;;;26.27;3.10;;;;;;;;;;5091053;28;20494;-86
2024/01/23 10:03:27;;;;;;;18.60;2.87;;;;;;;;;;5089565;28;20084;-86
2024/01/23 10:05:52;;;;;;;24.27;3.03;;;;;;;;;;5092196;28;20028;-89
2024/01/23 10:08:18;;;;;;;20.93;3.10;;;;;;;;;;5093197;28;20074;-86
2024/01/23 10:10:43;;;;;;;31.20;3.25;;;;;;;;;;5091515;28;20017;-86
2024/01/23 10:13:11;;;;;;;26.97;2.47;;;;;;;;;;5077035;28;20100;-86
2024/01/23 10:15:36;;;;;;;22.92;2.60;;;;;;;;;;5087008;28;20024;-86
2024/01/23 10:18:04;;;;;;;21.20;2.87;;;;;;;;;;5089658;28;20112;-87
2024/01/23 10:20:30;;;;;;;24.80;3.40;;;;;;;;;;5070786;28;20535;-86
2024/01/23 10:22:58;;;;;;;23.17;2.50;;;;;;;;;;5090723;28;20286;-87
2024/01/23 10:25:25;;;;;;;21.33;2.75;;;;;;;;;;5072440;28;20081;-88
2024/01/23 10:27:53;;;;;;;19.13;2.78;;;;;;;;;;5091354;28;20115;-87
2024/01/23 10:30:19;;;;;;;21.65;2.78;;;;;;;;;;5092365;28;20024;-87
2024/01/23 10:32:45;;;;;;;28.10;2.70;;;;;;;;;;5090913;28;20016;-87
2024/01/23 10:35:13;;;;;;;26.45;3.00;;;;;;;;;;5088905;28;20028;-87
2024/01/23 10:37:40;;;;;;;27.77;3.05;;;;;;;;;;5087305;28;20028;-87
2024/01/23 10:40:07;;;;;;;18.67;3.15;;;;;;;;;;5088244;28;20442;-88
2024/01/23 10:42:33;;;;;;;27.27;3.83;;;;;;;;;;5086879;28;20545;-86
2024/01/23 10:44:59;;;;;;;26.73;3.37;;;;;;;;;;5088760;28;20020;-86
2024/01/23 10:47:24;;;;;;;30.88;3.35;;;;;;;;;;5096667;28;20027;-86
2024/01/23 10:49:49;;;;;;;31.83;3.10;;;;;;;;;;5061526;28;20080;-86
2024/01/23 10:52:17;;;;;;;28.73;3.93;;;;;;;;;;5089895;28;20332;-86
2024/01/23 10:54:43;;;;;;;23.33;3.00;;;;;;;;;;5072395;28;20024;-87
2024/01/23 10:57:12;;;;;;;26.52;2.80;;;;;;;;;;5085748;28;20056;-87
2024/01/23 10:59:38;;;;;;;22.70;2.53;;;;;;;;;;5070556;28;20012;-87
2024/01/23 11:02:05;;;;;;;32.17;3.10;;;;;;;;;;5092655;28;20024;-88
2024/01/23 11:04:31;;;;;;;25.17;2.60;;;;;;;;;;5097045;28;20258;-93
2024/01/23 11:07:15;;;;;;;22.85;3.17;;;;;;;;;;5075672;28;20030;-92
2024/01/23 11:09:44;;;;;;;34.43;3.57;;;;;;;;;;5084617;28;20032;-94
2024/01/23 11:12:18;;;;;;;25.83;3.30;;;;;;;;;;5098236;28;20361;-91
2024/01/23 11:14:48;;;;;;;20.83;2.67;;;;;;;;;;5094137;28;20032;-90
2024/01/23 11:17:14;;;;;;;19.02;2.58;;;;;;;;;;5094683;28;20039;-92
2024/01/23 11:19:40;;;;;;;22.02;3.38;;;;;;;;;;5084770;28;20027;-91
2024/01/23 11:22:05;;;;;;;30.95;2.90;;;;;;;;;;5089556;28;20020;-89
2024/01/23 11:24:43;;;;;;;16.80;2.33;;;;;;;;;;5084878;28;20009;-88
2024/01/23 11:27:17;;;;;;;20.42;2.55;;;;;;;;;;5087597;28;20027;-88
2024/01/23 11:29:43;;;;;;;23.40;3.57;;;;;;;;;;5090421;28;20045;-90
2024/01/23 11:32:19;;;;;;;17.42;2.55;;;;;;;;;;5090380;28;20028;-89
2024/01/23 11:34:45;;;;;;;23.35;2.63;;;;;;;;;;5091332;28;20032;-89
2024/01/23 11:37:28;;;;;;;22.30;2.73;;;;;;;;;;5088414;28;20024;-89
2024/01/23 11:39:54;;;;;;;18.25;2.00;;;;;;;;;;5089777;28;20109;-89
2024/01/23 11:42:19;;;;;;;23.63;3.20;;;;;;;;;;5088626;28;20356;-89
2024/01/23 11:44:44;;;;;;;19.40;3.73;;;;;;;;;;5090856;28;20027;-88
2024/01/23 11:47:09;;;;;;;26.97;3.10;;;;;;;;;;5090813;28;20028;-90
2024/01/23 11:49:35;;;;;;;29.00;3.60;;;;;;;;;;5090553;28;20024;-89
2024/01/23 11:52:03;;;;;;;20.45;3.15;;;;;;;;;;5090359;28;20085;-89
2024/01/23 11:54:28;;;;;;;19.03;2.97;;;;;;;;;;5092310;28;20011;-89
2024/01/23 11:56:53;;;;;;;28.20;3.60;;;;;;;;;;5071790;28;20297;-89
2024/01/23 11:59:19;;;;;;;20.93;2.70;;;;;;;;;;5073037;28;20101;-88
2024/01/23 12:01:45;;;;;;;24.87;2.93;;;;;;;;;;5093053;28;20028;-89
2024/01/23 12:04:11;;;;;;;21.10;2.65;;;;;;;;;;5095134;28;20118;-90
2024/01/23 12:06:36;;;;;;;20.33;2.87;;;;;;;;;;5094138;28;20030;-89
2024/01/23 12:09:02;;;;;;;20.10;3.03;;;;;;;;;;5097711;28;20080;-88
2024/01/23 12:11:30;;;;;;;29.13;3.60;;;;;;;;;;5064643;28;20032;-88
2024/01/23 12:13:55;;;;;;;21.52;3.63;;;;;;;;;;5072667;28;20489;-87
2024/01/23 12:16:20;;;;;;;25.63;3.10;;;;;;;;;;5071543;28;20074;-85
2024/01/23 12:18:56;;;;;;;32.00;4.57;;;;;;;;;;5103213;28;20107;-86
2024/01/23 12:21:21;;;;;;;23.02;3.22;;;;;;;;;;5105480;28;20116;-86
2024/01/23 12:23:46;;;;;;;23.90;3.50;;;;;;;;;;5108938;28;20429;-87
2024/01/23 12:26:12;;;;;;;22.27;3.00;;;;;;;;;;5110930;28;20050;-86
2024/01/23 12:28:37;;;;;;;32.03;2.97;;;;;;;;;;5109207;28;20261;-85
2024/01/23 12:31:09;;;;;;;29.17;2.87;;;;;;;;;;5071749;28;20501;-87
2024/01/23 12:33:38;;;;;;;26.80;3.63;;;;;;;;;;5082216;28;20024;-93
2024/01/23 12:36:04;;;;;;;21.37;2.80;;;;;;;;;;5094402;28;20035;-96
2024/01/23 12:38:30;;;;;;;27.48;3.17;;;;;;;;;;5101009;28;20016;-96
2024/01/23 12:40:58;;;;;;;19.73;3.67;;;;;;;;;;5081291;28;20030;-96
2024/01/23 12:43:23;;;;;;;28.67;4.13;;;;;;;;;;5101977;28;20434;-95
2024/01/23 12:45:52;;;;;;;30.87;3.13;;;;;;;;;;5086390;28;20008;-94
2024/01/23 12:48:19;;;;;;;34.57;3.70;;;;;;;;;;5083971;28;20270;-95
2024/01/23 12:50:44;;;;;;;27.05;3.65;;;;;;;;;;5102450;28;20073;-95
2024/01/23 12:53:10;;;;;;;34.67;4.30;;;;;;;;;;5079197;28;20036;-96
2024/01/23 12:55:35;;;;;;;32.47;3.80;;;;;;;;;;5072335;28;20027;-95
2024/01/23 12:58:01;;;;;;;28.70;4.30;;;;;;;;;;5085812;28;20025;-95
2024/01/23 13:00:26;;;;;;;26.00;3.70;;;;;;;;;;5102444;28;20020;-95
2024/01/23 13:02:54;;;;;;;35.83;3.90;;;;;;;;;;5084999;28;20019;-95
2024/01/23 13:05:21;;;;;;;32.67;3.97;;;;;;;;;;5096486;28;20005;-95
2024/01/23 13:07:47;;;;;;;34.72;3.78;;;;;;;;;;5085693;28;20035;-95
2024/01/23 13:10:13;;;;;;;27.77;3.67;;;;;;;;;;5115521;28;20004;-95
2024/01/23 13:12:39;;;;;;;28.57;3.57;;;;;;;;;;5100894;28;20345;-95
2024/01/23 13:15:05;;;;;;;23.45;3.55;;;;;;;;;;5100301;28;20023;-96
2024/01/23 13:17:30;;;;;;;31.00;4.07;;;;;;;;;;5100101;28;20127;-96
2024/01/23 13:19:56;;;;;;;38.63;4.63;;;;;;;;;;5088415;28;20020;-96
2024/01/23 13:22:21;;;;;;;28.87;4.00;;;;;;;;;;5103052;28;20051;-96
2024/01/23 13:24:47;;;;;;;24.93;3.30;;;;;;;;;;5107195;28;20028;-95
2024/01/23 13:27:12;;;;;;;30.33;5.07;;;;;;;;;;5081693;28;20270;-95
2024/01/23 13:29:37;;;;;;;30.73;4.23;;;;;;;;;;5103427;28;20266;-95
2024/01/23 13:32:07;;;;;;;28.73;3.50;;;;;;;;;;5086831;28;20397;-95
2024/01/23 13:34:33;;;;;;;33.65;4.03;;;;;;;;;;5085965;28;20020;-95
2024/01/23 13:36:58;;;;;;;32.37;3.77;;;;;;;;;;5105422;28;20031;-94
2024/01/23 13:39:23;;;;;;;27.10;4.37;;;;;;;;;;5103761;28;20047;-96
2024/01/23 13:41:49;;;;;;;29.47;3.57;;;;;;;;;;5099997;28;20028;-95
2024/01/23 13:44:17;;;;;;;24.83;3.42;;;;;;;;;;5079954;28;20016;-94
2024/01/23 13:46:43;;;;;;;28.77;3.57;;;;;;;;;;5100446;28;20008;-94
2024/01/23 13:49:11;;;;;;;27.13;3.90;;;;;;;;;;5102538;28;20310;-95
2024/01/23 13:51:39;;;;;;;26.33;3.70;;;;;;;;;;5065900;28;20027;-95
2024/01/23 13:54:04;;;;;;;25.88;3.38;;;;;;;;;;5078799;28;20016;-96
2024/01/23 13:56:30;;;;;;;36.47;3.87;;;;;;;;;;5106059;28;20220;-95
2024/01/23 13:58:56;;;;;;;23.05;3.35;;;;;;;;;;5096145;28;20105;-95
2024/01/23 14:01:21;;;;;;;40.07;5.00;;;;;;;;;;5101512;28;20435;-95
2024/01/23 14:03:46;;;;;;;30.60;4.53;;;;;;;;;;5082928;28;20074;-95
2024/01/23 14:06:12;;;;;;;31.37;3.97;;;;;;;;;;5074749;28;20529;-94
2024/01/23 14:08:41;;;;;;;30.87;4.93;;;;;;;;;;5098274;28;20020;-95
2024/01/23 14:11:07;;;;;;;31.77;3.80;;;;;;;;;;5098215;28;19996;-94
2024/01/23 14:13:32;;;;;;;31.23;4.63;;;;;;;;;;5082121;28;20039;-95
2024/01/23 14:15:58;;;;;;;29.07;4.07;;;;;;;;;;5086601;28;20027;-94
2024/01/23 14:18:23;;;;;;;22.27;3.30;;;;;;;;;;5092660;28;20138;-94
2024/01/23 14:20:48;;;;;;;29.17;3.97;;;;;;;;;;5098474;28;20012;-95
2024/01/23 14:23:14;;;;;;;30.60;3.87;;;;;;;;;;5100373;28;20047;-95